Terminal Aerodrome Forecast
Issued by NWS

Current Version | Previous Version | Graphics & Text | Print | Product List | Glossary On
Versions: 1 2 3 4 5 6 7 8 9 10 11 12 13 14 15 16 17 18 19 20 21 22
000
FTUS41 KRLX 171400 AAA
TAFCKB
TAF AMD
KCKB 171405Z 1714/1812 00000KT 3/4SM BR OVC003
     FM171500 VRB03KT 6SM BR SCT005
     FM171600 28004KT P6SM FEW040
     FM180600 00000KT 2SM BR BKN003=

USA.gov is the U.S. government's official web portal to all federal, state and local government web resources and services.